Abilene Regional Airport Abilene US
ICAO: KABI
IATA: ABI
Category: Medium
Scheduled Services: Yes

Elevation: 1791 ft
TransAlt. 18000 ft.

Airport Communications:
APP/DEP:125
ATIS:118.25
GND:121.7
FORT WORTH RDO:122.65
TWR:120.1
UNICOM:122.95

KABI Zoom In..

Runways:

(A) RW 04 length 3679 ft width 100 ft
LOC 109.75 / hdg 44

(B) RW 17L length 7198 ft width 150 ft
LOC 109.75 / hdg 172

(C) RW 17R length 7203 ft width 150 ft
LOC 109.75 / hdg 172

(D) RW 22 length 3679 ft width 100 ft
LOC 109.75 / hdg 224

(E) RW 35L length 7203 ft width 150 ft
LOC 109.75 / hdg 352

(F) RW 35R length 7198 ft width 150 ft
ILS 110.30 / hdg 352

Location; KABI
Day. 21 / Time. 23.52 Zulu
* Altimeter: 30.00
* Temperature: 17° c. 62.6°f.
* Wind from: 360° Speed 19 kn with Gusts up to 27 kn.
Dewpoint: 09° c.
Visibility: 10 Statute Miles.
Clouds: Scattered 7500 ft.

KABI 212352Z 36019G27KT 10SM SCT075 17/09 A3000 RMK AO2 PK WND 35027/2347 SLP148 60002 T01720089 10278 20161 51041


Wind From 360°
Speed 19 kn.

  YouTube Music Video
 
jpsmedia.com for Web Design  worldairports.se 2018   terms of use